createdAt,value
2018-12-05T00:02:08.943Z,1.40
2018-12-05T00:04:37.483Z,1.40
2018-12-05T00:07:06.041Z,1.50
2018-12-05T00:09:34.527Z,1.50
2018-12-05T00:12:03.201Z,1.50
2018-12-05T00:14:31.765Z,1.50
2018-12-05T00:17:00.577Z,1.50
2018-12-05T00:19:29.182Z,1.50
2018-12-05T00:21:57.825Z,1.50
2018-12-05T00:24:26.370Z,1.50
2018-12-05T00:26:54.921Z,1.50
2018-12-05T00:29:23.456Z,1.60
2018-12-05T00:31:52.025Z,1.50
2018-12-05T00:34:20.525Z,1.50
2018-12-05T00:36:49.084Z,1.50
2018-12-05T00:39:17.616Z,1.60
2018-12-05T00:41:46.116Z,1.60
2018-12-05T00:44:14.643Z,1.60
2018-12-05T00:46:43.191Z,1.60
2018-12-05T00:49:11.844Z,1.60
2018-12-05T00:51:40.489Z,1.60
2018-12-05T00:54:09.094Z,1.60
2018-12-05T00:56:37.604Z,1.60
2018-12-05T00:59:06.218Z,1.70
2018-12-05T01:01:34.830Z,1.70
2018-12-05T01:04:06.473Z,1.70
2018-12-05T01:06:35.043Z,1.60
2018-12-05T01:09:05.658Z,1.60
2018-12-05T01:11:34.267Z,1.60
2018-12-05T01:14:02.866Z,1.60
2018-12-05T01:16:31.483Z,1.60
2018-12-05T01:19:00.004Z,1.60
2018-12-05T01:21:35.236Z,1.50
2018-12-05T01:24:03.897Z,1.50
2018-12-05T01:26:32.436Z,1.50
2018-12-05T01:29:00.969Z,1.40
2018-12-05T01:31:29.449Z,1.40
2018-12-05T01:33:57.985Z,1.30
2018-12-05T01:36:26.679Z,1.20
2018-12-05T01:38:55.277Z,1.20
2018-12-05T01:41:23.781Z,1.20
2018-12-05T01:43:52.310Z,1.10
2018-12-05T01:46:20.799Z,1.10
2018-12-05T01:48:49.288Z,1.00
2018-12-05T01:51:17.924Z,1.00
2018-12-05T01:53:46.527Z,1.00
2018-12-05T01:56:21.895Z,0.90
2018-12-05T01:58:50.803Z,0.90
2018-12-05T02:01:19.299Z,0.90
2018-12-05T02:03:47.893Z,0.90
2018-12-05T02:06:16.464Z,0.90
2018-12-05T02:08:45.046Z,0.90
2018-12-05T02:11:13.600Z,0.90
2018-12-05T02:13:42.157Z,0.80
2018-12-05T02:16:10.660Z,0.80
2018-12-05T02:18:39.342Z,0.80
2018-12-05T02:21:07.824Z,0.80
2018-12-05T02:23:36.342Z,0.80
2018-12-05T02:26:05.094Z,0.80
2018-12-05T02:28:33.614Z,0.80
2018-12-05T02:31:02.243Z,0.80
2018-12-05T02:33:30.768Z,0.80
2018-12-05T02:35:59.269Z,0.80
2018-12-05T02:38:27.813Z,0.90
2018-12-05T02:40:56.357Z,0.90
2018-12-05T02:43:24.845Z,0.90
2018-12-05T02:45:53.401Z,0.90
2018-12-05T02:48:21.952Z,0.90
2018-12-05T02:50:50.439Z,0.80
2018-12-05T02:53:18.975Z,0.80
2018-12-05T02:55:47.537Z,0.90
2018-12-05T02:58:16.027Z,0.90
2018-12-05T03:00:44.547Z,1.00
2018-12-05T03:03:13.108Z,1.00
2018-12-05T03:05:41.738Z,0.90
2018-12-05T03:08:10.217Z,0.90
2018-12-05T03:10:38.739Z,0.90
2018-12-05T03:13:07.250Z,0.80
2018-12-05T03:15:35.750Z,0.90
2018-12-05T03:18:04.384Z,0.90
2018-12-05T03:20:32.895Z,0.80
2018-12-05T03:23:01.442Z,0.80
2018-12-05T03:25:30.034Z,0.80
2018-12-05T03:27:58.574Z,0.80
2018-12-05T03:30:27.109Z,0.70
2018-12-05T03:32:55.658Z,0.70
2018-12-05T03:35:29.407Z,0.70
2018-12-05T03:37:58.008Z,0.70
2018-12-05T03:40:26.520Z,0.70
2018-12-05T03:42:55.020Z,0.70
2018-12-05T03:45:23.687Z,0.70
2018-12-05T03:47:52.172Z,0.70
2018-12-05T03:50:20.697Z,0.70
2018-12-05T03:52:49.259Z,0.70
2018-12-05T03:55:17.756Z,0.80
2018-12-05T03:57:46.260Z,0.70
2018-12-05T04:00:14.826Z,0.70
2018-12-05T04:02:43.344Z,0.60
2018-12-05T04:05:11.934Z,0.60
2018-12-05T04:07:40.608Z,0.50
2018-12-05T04:10:09.349Z,0.50
2018-12-05T04:12:40.811Z,0.40
2018-12-05T04:15:08.685Z,0.40
2018-12-05T04:17:37.260Z,0.40
2018-12-05T04:20:05.849Z,0.40
2018-12-05T04:22:34.426Z,0.30
2018-12-05T04:25:02.911Z,0.30
2018-12-05T04:27:31.398Z,0.30
2018-12-05T04:29:59.913Z,0.30
2018-12-05T04:32:28.398Z,0.30
2018-12-05T04:34:56.920Z,0.30
2018-12-05T04:37:25.451Z,0.30
2018-12-05T04:39:53.964Z,0.30
2018-12-05T04:42:22.454Z,0.20
2018-12-05T04:44:50.997Z,0.20
2018-12-05T04:47:19.498Z,0.20
2018-12-05T04:49:48.064Z,0.10
2018-12-05T04:52:16.567Z,0.10
2018-12-05T04:54:45.047Z,0.10
2018-12-05T04:57:13.585Z,0.10
2018-12-05T04:59:42.097Z,0.10
2018-12-05T05:02:10.555Z,0.10
2018-12-05T05:04:39.083Z,0.10
2018-12-05T05:07:07.595Z,0.10
2018-12-05T05:09:36.145Z,0.10
2018-12-05T05:12:04.751Z,0.10
2018-12-05T05:14:33.293Z,0.10
2018-12-05T05:17:01.808Z,0.10
2018-12-05T05:19:30.321Z,0.20
2018-12-05T05:21:59.049Z,0.20
2018-12-05T05:24:27.509Z,0.30
2018-12-05T05:26:56.066Z,0.20
2018-12-05T05:29:24.611Z,0.20
2018-12-05T05:31:53.083Z,0.10
2018-12-05T05:34:21.609Z,0.00
2018-12-05T05:36:50.162Z,0.00
2018-12-05T05:39:18.650Z,0.00
2018-12-05T05:41:47.284Z,-0.10
2018-12-05T05:44:15.808Z,-0.10
2018-12-05T05:46:44.304Z,-0.10
2018-12-05T05:49:12.807Z,-0.10
2018-12-05T05:51:41.280Z,-0.20
2018-12-05T05:54:09.824Z,-0.20
2018-12-05T05:56:38.366Z,-0.10
2018-12-05T05:59:06.895Z,-0.10
2018-12-05T06:01:35.433Z,-0.10
2018-12-05T06:04:06.125Z,-0.10
2018-12-05T06:06:34.682Z,-0.20
2018-12-05T06:09:04.338Z,-0.20
2018-12-05T06:11:32.814Z,-0.20
2018-12-05T06:14:01.451Z,-0.20
2018-12-05T06:16:29.985Z,-0.20
2018-12-05T06:18:58.482Z,-0.20
2018-12-05T06:21:27.033Z,-0.30
2018-12-05T06:23:56.295Z,-0.20
2018-12-05T06:26:24.781Z,-0.20
2018-12-05T06:28:53.359Z,-0.20
2018-12-05T06:31:21.955Z,-0.20
2018-12-05T06:33:50.478Z,-0.20
2018-12-05T06:36:19.022Z,-0.20
2018-12-05T06:38:47.501Z,-0.10
2018-12-05T06:41:16.283Z,0.00
2018-12-05T06:43:44.845Z,0.00
2018-12-05T06:46:14.189Z,0.00
2018-12-05T06:48:42.705Z,0.00
2018-12-05T06:51:11.296Z,0.00
2018-12-05T06:53:39.814Z,0.00
2018-12-05T06:56:08.388Z,0.00
2018-12-05T06:58:37.142Z,0.00
2018-12-05T07:01:07.801Z,-0.10
2018-12-05T07:03:36.363Z,-0.10
2018-12-05T07:06:04.986Z,-0.10
2018-12-05T07:08:33.670Z,-0.10
2018-12-05T07:11:03.146Z,0.00
2018-12-05T07:13:31.737Z,0.00
2018-12-05T07:16:00.249Z,0.00
2018-12-05T07:18:28.719Z,0.20
2018-12-05T07:20:57.259Z,0.10
2018-12-05T07:23:25.875Z,0.10
2018-12-05T07:25:54.408Z,0.10
2018-12-05T07:28:22.962Z,0.10
2018-12-05T07:30:51.502Z,0.10
2018-12-05T07:33:20.020Z,0.00
2018-12-05T07:35:48.575Z,0.00
2018-12-05T07:38:19.596Z,0.00
2018-12-05T07:40:47.634Z,0.10
2018-12-05T07:43:16.188Z,0.10
2018-12-05T07:45:44.720Z,0.20
2018-12-05T07:48:13.256Z,0.20
2018-12-05T07:50:42.008Z,0.20
2018-12-05T07:53:10.510Z,0.20
2018-12-05T07:55:39.004Z,0.20
2018-12-05T07:58:07.537Z,0.20
2018-12-05T08:00:36.158Z,0.30
2018-12-05T08:03:04.667Z,0.30
2018-12-05T08:05:33.164Z,0.30
2018-12-05T08:08:01.766Z,0.30
2018-12-05T08:10:30.289Z,0.30
2018-12-05T08:12:58.925Z,0.30
2018-12-05T08:15:27.436Z,0.30
2018-12-05T08:17:55.925Z,0.30
2018-12-05T08:20:24.419Z,0.30
2018-12-05T08:22:52.884Z,0.30
2018-12-05T08:25:21.422Z,0.40
2018-12-05T08:27:50.092Z,0.40
2018-12-05T08:30:18.664Z,0.40
2018-12-05T08:32:47.192Z,0.50
2018-12-05T08:35:15.710Z,0.50
2018-12-05T08:37:44.262Z,0.50
2018-12-05T08:40:12.752Z,0.60
2018-12-05T08:42:42.187Z,0.60
2018-12-05T08:45:10.719Z,0.70
2018-12-05T08:47:39.273Z,0.70
2018-12-05T08:50:07.999Z,0.80
2018-12-05T08:52:36.510Z,0.90
2018-12-05T08:55:05.369Z,0.90
2018-12-05T08:57:33.929Z,1.10
2018-12-05T09:00:03.267Z,1.10
2018-12-05T09:02:31.769Z,1.10
2018-12-05T09:05:00.457Z,1.10
2018-12-05T09:07:29.001Z,1.20
2018-12-05T09:09:57.547Z,1.30
2018-12-05T09:12:26.085Z,1.40
2018-12-05T09:14:54.746Z,1.50
2018-12-05T09:17:23.254Z,1.60
2018-12-05T09:19:51.862Z,1.60
2018-12-05T09:22:20.450Z,1.70
2018-12-05T09:24:48.940Z,1.80
2018-12-05T09:27:17.569Z,1.80
2018-12-05T09:29:46.080Z,1.80
2018-12-05T09:32:14.579Z,1.90
2018-12-05T09:34:43.141Z,1.90
2018-12-05T09:37:11.681Z,2.00
2018-12-05T09:39:40.199Z,2.00
2018-12-05T09:42:08.879Z,2.10
2018-12-05T09:44:37.411Z,2.30
2018-12-05T09:47:06.012Z,2.60
2018-12-05T09:49:34.643Z,2.60
2018-12-05T09:52:03.153Z,2.70
2018-12-05T09:54:31.707Z,2.70
2018-12-05T09:57:00.439Z,2.70
2018-12-05T09:59:29.115Z,2.80
2018-12-05T10:01:57.727Z,2.90
2018-12-05T10:04:26.337Z,2.90
2018-12-05T10:06:54.861Z,3.00
2018-12-05T10:09:23.370Z,3.00
2018-12-05T10:11:52.140Z,3.00
2018-12-05T10:14:20.668Z,3.00
2018-12-05T10:16:49.738Z,3.10
2018-12-05T10:19:18.244Z,3.10
2018-12-05T10:21:46.830Z,3.20
2018-12-05T10:24:15.366Z,3.20
2018-12-05T10:26:43.899Z,3.30
2018-12-05T10:29:12.414Z,3.40
2018-12-05T10:31:43.955Z,3.50
2018-12-05T10:34:12.361Z,3.50
2018-12-05T10:36:40.840Z,3.60
2018-12-05T10:39:09.884Z,3.60
2018-12-05T10:41:39.083Z,3.70
2018-12-05T10:44:07.623Z,3.80
2018-12-05T10:46:36.229Z,3.80
2018-12-05T10:49:05.208Z,3.90
2018-12-05T10:51:33.687Z,3.80
2018-12-05T10:54:02.145Z,3.80
2018-12-05T10:56:30.715Z,3.90
2018-12-05T10:58:59.351Z,4.00
2018-12-05T11:02:31.841Z,4.00
2018-12-05T11:05:05.825Z,4.00
2018-12-05T11:07:39.737Z,4.20
2018-12-05T11:10:13.639Z,4.30
2018-12-05T11:12:47.422Z,4.30
2018-12-05T11:15:21.290Z,4.30
2018-12-05T11:18:53.860Z,4.30
2018-12-05T11:21:27.898Z,4.40
2018-12-05T11:25:00.331Z,4.40
2018-12-05T11:27:29.027Z,4.40
2018-12-05T11:29:57.544Z,4.50
2018-12-05T11:32:26.285Z,4.50
2018-12-05T11:34:54.773Z,4.60
2018-12-05T11:37:23.757Z,4.60
2018-12-05T11:39:52.323Z,4.60
2018-12-05T11:42:20.835Z,4.60
2018-12-05T11:44:49.393Z,4.70
2018-12-05T11:47:17.930Z,4.70
2018-12-05T11:49:46.431Z,4.70
2018-12-05T11:52:14.939Z,4.70
2018-12-05T11:54:43.585Z,4.70
2018-12-05T11:57:12.210Z,4.80
2018-12-05T11:59:40.682Z,4.90
2018-12-05T12:02:09.251Z,4.90
2018-12-05T12:04:37.811Z,4.90
2018-12-05T12:07:06.330Z,5.00
2018-12-05T12:09:34.839Z,5.10
2018-12-05T12:12:03.542Z,5.10
2018-12-05T12:14:32.990Z,5.20
2018-12-05T12:17:02.138Z,5.30
2018-12-05T12:19:30.755Z,5.20
2018-12-05T12:21:59.213Z,5.20
2018-12-05T12:24:34.721Z,5.20
2018-12-05T12:26:58.355Z,5.20
2018-12-05T12:29:26.876Z,5.20
2018-12-05T12:31:55.477Z,5.20
2018-12-05T12:34:23.990Z,5.20
2018-12-05T12:36:52.503Z,5.20
2018-12-05T12:39:21.072Z,5.20
2018-12-05T12:41:49.592Z,5.20
2018-12-05T12:44:18.128Z,5.40
2018-12-05T12:46:46.643Z,5.50
2018-12-05T12:49:15.127Z,5.50
2018-12-05T12:51:43.616Z,5.40
2018-12-05T12:54:12.169Z,5.40
2018-12-05T12:56:40.753Z,5.30
2018-12-05T12:59:09.242Z,5.30
2018-12-05T13:01:37.888Z,5.20
2018-12-05T13:04:06.357Z,5.20
2018-12-05T13:06:34.965Z,5.20
2018-12-05T13:09:05.417Z,5.10
2018-12-05T13:11:33.901Z,5.10
2018-12-05T13:14:02.425Z,5.00
2018-12-05T13:16:30.965Z,5.00
2018-12-05T13:18:59.511Z,5.00
2018-12-05T13:21:27.984Z,5.00
2018-12-05T13:23:56.539Z,5.00
2018-12-05T13:26:25.102Z,5.00
2018-12-05T13:28:54.383Z,5.00
2018-12-05T13:31:22.965Z,5.00
2018-12-05T13:33:51.408Z,5.10
2018-12-05T13:36:19.920Z,5.10
2018-12-05T13:38:48.457Z,5.10
2018-12-05T13:41:16.972Z,5.10
2018-12-05T13:43:45.611Z,5.20
2018-12-05T13:46:14.142Z,5.10
2018-12-05T13:48:42.621Z,5.00
2018-12-05T13:51:11.371Z,4.90
2018-12-05T13:53:39.921Z,4.80
2018-12-05T13:56:08.485Z,4.70
2018-12-05T13:58:36.976Z,4.70
2018-12-05T14:01:05.514Z,4.80
2018-12-05T14:03:34.043Z,4.70
2018-12-05T14:06:02.672Z,4.70
2018-12-05T14:08:31.178Z,4.60
2018-12-05T14:10:59.646Z,4.60
2018-12-05T14:13:28.108Z,4.60
2018-12-05T14:15:56.737Z,4.60
2018-12-05T14:18:25.349Z,4.50
2018-12-05T14:20:53.823Z,4.50
2018-12-05T14:23:22.349Z,4.50
2018-12-05T14:25:50.871Z,4.50
2018-12-05T14:28:19.395Z,4.40
2018-12-05T14:30:47.957Z,4.30
2018-12-05T14:33:16.423Z,4.30
2018-12-05T14:35:44.988Z,4.20
2018-12-05T14:38:13.544Z,4.10
2018-12-05T14:40:42.307Z,4.00
2018-12-05T14:43:10.824Z,3.80
2018-12-05T14:45:39.449Z,3.70
2018-12-05T14:48:07.945Z,3.70
2018-12-05T14:50:36.566Z,3.70
2018-12-05T14:53:05.499Z,3.60
2018-12-05T14:55:33.990Z,3.50
2018-12-05T14:58:02.480Z,3.40
2018-12-05T15:00:31.078Z,3.40
2018-12-05T15:02:59.562Z,3.50
2018-12-05T15:05:28.064Z,3.40
2018-12-05T15:07:56.740Z,3.40
2018-12-05T15:10:25.225Z,3.50
2018-12-05T15:12:53.728Z,3.50
2018-12-05T15:15:22.347Z,3.50
2018-12-05T15:17:50.847Z,3.50
2018-12-05T15:20:19.456Z,3.40
2018-12-05T15:22:48.009Z,3.40
2018-12-05T15:25:16.488Z,3.40
2018-12-05T15:27:45.159Z,3.30
2018-12-05T15:30:13.819Z,3.40
2018-12-05T15:32:42.353Z,3.30
2018-12-05T15:35:10.886Z,3.20
2018-12-05T15:37:39.378Z,3.10
2018-12-05T15:40:08.261Z,3.10
2018-12-05T15:42:36.797Z,3.10
2018-12-05T15:45:06.982Z,3.10
2018-12-05T15:47:36.380Z,3.20
2018-12-05T15:50:06.825Z,3.10
2018-12-05T15:52:35.518Z,3.00
2018-12-05T15:55:04.331Z,3.00
2018-12-05T15:57:32.870Z,3.00
2018-12-05T16:00:01.551Z,3.10
2018-12-05T16:02:30.089Z,3.10
2018-12-05T16:04:58.611Z,3.00
2018-12-05T16:07:27.126Z,3.10
2018-12-05T16:09:55.661Z,3.10
2018-12-05T16:12:24.254Z,3.10
2018-12-05T16:14:53.019Z,3.10
2018-12-05T16:17:21.554Z,3.10
2018-12-05T16:19:50.126Z,3.20
2018-12-05T16:22:18.698Z,3.20
2018-12-05T16:24:47.224Z,3.20
2018-12-05T16:27:15.798Z,3.20
2018-12-05T16:29:44.320Z,3.30
2018-12-05T16:32:13.016Z,3.20
2018-12-05T16:34:41.765Z,3.30
2018-12-05T16:37:10.348Z,3.10
2018-12-05T16:39:38.874Z,3.10
2018-12-05T16:42:07.490Z,3.10
2018-12-05T16:44:36.079Z,3.10
2018-12-05T16:47:04.577Z,3.10
2018-12-05T16:49:33.371Z,3.10
2018-12-05T16:52:02.283Z,3.10
2018-12-05T16:54:31.274Z,3.10
2018-12-05T16:56:59.793Z,3.10
2018-12-05T16:59:28.331Z,3.00
2018-12-05T17:01:56.848Z,3.00
2018-12-05T17:04:25.419Z,3.10
2018-12-05T17:06:53.946Z,3.10
2018-12-05T17:09:25.976Z,3.10
2018-12-05T17:11:53.036Z,3.10
2018-12-05T17:14:21.690Z,3.10
2018-12-05T17:16:50.354Z,3.20
2018-12-05T17:19:18.966Z,3.30
2018-12-05T17:21:47.494Z,3.40
2018-12-05T17:24:15.994Z,3.40
2018-12-05T17:26:44.510Z,3.40
2018-12-05T17:29:13.054Z,3.40
2018-12-05T17:31:41.601Z,3.40
2018-12-05T17:34:10.071Z,3.30
2018-12-05T17:36:38.757Z,3.40
2018-12-05T17:39:08.948Z,3.30
2018-12-05T17:41:37.513Z,3.20
2018-12-05T17:44:06.164Z,3.30
2018-12-05T17:46:34.693Z,3.30
2018-12-05T17:49:03.237Z,3.30
2018-12-05T17:51:31.836Z,3.30
2018-12-05T17:54:00.394Z,3.30
2018-12-05T17:56:28.962Z,3.30
2018-12-05T17:58:57.510Z,3.40
2018-12-05T18:01:26.110Z,3.40
2018-12-05T18:03:54.717Z,3.30
2018-12-05T18:06:24.286Z,3.30
2018-12-05T18:08:53.059Z,3.30
2018-12-05T18:11:21.779Z,3.30
2018-12-05T18:13:50.545Z,3.30
2018-12-05T18:16:19.243Z,3.20
2018-12-05T18:18:48.001Z,3.20
2018-12-05T18:21:16.623Z,3.30
2018-12-05T18:23:45.381Z,3.40
2018-12-05T18:26:13.916Z,3.40
2018-12-05T18:28:42.540Z,3.40
2018-12-05T18:31:11.069Z,3.40
2018-12-05T18:33:39.703Z,3.40
2018-12-05T18:36:08.354Z,3.30
2018-12-05T18:38:37.056Z,3.30
2018-12-05T18:41:06.206Z,3.40
2018-12-05T18:43:35.076Z,3.30
2018-12-05T18:46:03.655Z,3.40
2018-12-05T18:48:32.365Z,3.40
2018-12-05T18:51:01.919Z,3.40
2018-12-05T18:53:30.547Z,3.40
2018-12-05T18:55:59.616Z,3.40
2018-12-05T18:58:28.266Z,3.40
2018-12-05T19:00:56.988Z,3.30
2018-12-05T19:03:25.533Z,3.20
2018-12-05T19:05:54.869Z,3.20
2018-12-05T19:08:23.433Z,3.30
2018-12-05T19:10:52.037Z,3.40
2018-12-05T19:13:21.565Z,3.30
2018-12-05T19:15:50.252Z,3.30
2018-12-05T19:18:18.846Z,3.30
2018-12-05T19:20:47.528Z,3.20
2018-12-05T19:23:16.114Z,3.30
2018-12-05T19:25:44.710Z,3.40
2018-12-05T19:28:13.262Z,3.50
2018-12-05T19:30:42.012Z,3.50
2018-12-05T19:33:10.539Z,3.50
2018-12-05T19:35:39.755Z,3.50
2018-12-05T19:38:08.304Z,3.40
2018-12-05T19:40:37.068Z,3.30
2018-12-05T19:43:05.682Z,3.40
2018-12-05T19:45:34.249Z,3.40
2018-12-05T19:48:02.862Z,3.40
2018-12-05T19:50:31.490Z,3.40
2018-12-05T19:53:00.053Z,3.30
2018-12-05T19:55:35.317Z,3.20
2018-12-05T19:58:03.980Z,3.20
2018-12-05T20:00:32.640Z,3.20
2018-12-05T20:03:01.350Z,3.20
2018-12-05T20:05:30.326Z,3.20
2018-12-05T20:07:58.962Z,3.20
2018-12-05T20:10:27.720Z,3.20
2018-12-05T20:12:56.342Z,3.30
2018-12-05T20:15:24.868Z,3.30
2018-12-05T20:17:53.810Z,3.30
2018-12-05T20:20:22.469Z,3.40
2018-12-05T20:22:51.041Z,3.30
2018-12-05T20:25:19.928Z,3.40
2018-12-05T20:27:48.606Z,3.30
2018-12-05T20:30:17.204Z,3.30
2018-12-05T20:32:48.017Z,3.30
2018-12-05T20:35:16.713Z,3.30
2018-12-05T20:37:45.315Z,3.30
2018-12-05T20:40:14.630Z,3.30
2018-12-05T20:42:43.390Z,3.30
2018-12-05T20:45:12.300Z,3.30
2018-12-05T20:47:40.988Z,3.40
2018-12-05T20:50:09.808Z,3.30
2018-12-05T20:52:38.465Z,3.40
2018-12-05T20:55:07.373Z,3.50
2018-12-05T20:57:35.948Z,3.40
2018-12-05T21:00:05.415Z,3.40
2018-12-05T21:02:34.087Z,3.40
2018-12-05T21:05:02.917Z,3.40
2018-12-05T21:07:31.520Z,3.40
2018-12-05T21:10:00.261Z,3.40
2018-12-05T21:12:29.030Z,3.40
2018-12-05T21:15:17.560Z,3.40
2018-12-05T21:18:20.628Z,3.40
2018-12-05T21:20:50.227Z,3.40
2018-12-05T21:23:19.060Z,3.40
2018-12-05T21:25:48.285Z,3.40
2018-12-05T21:28:16.900Z,3.40
2018-12-05T21:30:46.405Z,3.40
2018-12-05T21:33:14.993Z,3.40
2018-12-05T21:35:43.606Z,3.30
2018-12-05T21:38:12.514Z,3.40
2018-12-05T21:40:41.080Z,3.30
2018-12-05T21:43:09.763Z,3.30
2018-12-05T21:45:38.362Z,3.40
2018-12-05T21:48:07.014Z,3.30
2018-12-05T21:50:36.473Z,3.30
2018-12-05T21:53:05.234Z,3.40
2018-12-05T21:55:33.842Z,3.40
2018-12-05T21:58:02.408Z,3.40
2018-12-05T22:00:31.096Z,3.40
2018-12-05T22:02:59.690Z,3.40
2018-12-05T22:05:28.541Z,3.40
2018-12-05T22:07:57.184Z,3.50
2018-12-05T22:10:25.906Z,3.50
2018-12-05T22:12:54.494Z,3.40
2018-12-05T22:15:23.140Z,3.40
2018-12-05T22:17:51.750Z,3.40
2018-12-05T22:20:20.379Z,3.40
2018-12-05T22:22:48.976Z,3.40
2018-12-05T22:25:17.735Z,3.40
2018-12-05T22:27:46.483Z,3.50
2018-12-05T22:30:15.109Z,3.50
2018-12-05T22:32:43.651Z,3.60
2018-12-05T22:35:12.288Z,3.50
2018-12-05T22:37:40.906Z,3.50
2018-12-05T22:40:09.944Z,3.60
2018-12-05T22:42:38.888Z,3.50
2018-12-05T22:45:07.630Z,3.50
2018-12-05T22:47:36.316Z,3.60
2018-12-05T22:50:07.287Z,3.60
2018-12-05T22:52:35.950Z,3.60
2018-12-05T22:55:04.847Z,3.60
2018-12-05T22:57:33.435Z,3.70
2018-12-05T23:00:01.989Z,3.60
2018-12-05T23:02:30.548Z,3.60
2018-12-05T23:05:04.467Z,3.60
2018-12-05T23:07:33.345Z,3.60
2018-12-05T23:10:02.100Z,3.60
2018-12-05T23:12:30.707Z,3.70
2018-12-05T23:14:59.546Z,3.70
2018-12-05T23:17:28.948Z,3.60
2018-12-05T23:19:57.458Z,3.70
2018-12-05T23:22:26.112Z,3.70
2018-12-05T23:24:54.757Z,3.70
2018-12-05T23:27:23.333Z,3.60
2018-12-05T23:29:51.938Z,3.60
2018-12-05T23:32:20.503Z,3.60
2018-12-05T23:34:49.058Z,3.70
2018-12-05T23:37:17.586Z,3.60
2018-12-05T23:39:46.188Z,3.60
2018-12-05T23:42:14.731Z,3.60
2018-12-05T23:44:43.265Z,3.50
2018-12-05T23:47:11.850Z,3.70
2018-12-05T23:49:40.604Z,3.70
2018-12-05T23:52:09.082Z,3.70
2018-12-05T23:54:37.546Z,3.80
2018-12-05T23:57:06.142Z,3.80
2018-12-05T23:59:34.746Z,3.90
